Time;durP1;ratioP1;P1;durP2;ratioP2;P2;SDS_P1;SDS_P2;PMS_P1;PMS_P2;Temp;Humidity;BMP_temperature;BMP_pressure;BME280_temperature;BME280_humidity;BME280_pressure;Samples;Min_cycle;Max_cycle;Signal;HPM_P1;HPM_P2
2021/10/22 00:02:11;;;;;;;1999.90;999.90;;;;;;;30.21;10.62;100494.88;5060719;27;97324;-72
2021/10/22 00:04:40;;;;;;;1999.90;999.90;;;;;;;30.20;10.52;100484.00;5062490;27;96898;-69
2021/10/22 00:07:07;;;;;;;1999.90;999.90;;;;;;;30.12;10.15;100483.59;5057527;27;99584;-71
2021/10/22 00:09:36;;;;;;;1999.90;999.90;;;;;;;30.20;10.57;100492.22;5062880;27;96890;-69
2021/10/22 00:12:06;;;;;;;1999.90;999.90;;;;;;;30.28;10.19;100498.09;5060830;27;98950;-70
2021/10/22 00:14:34;;;;;;;1999.90;999.90;;;;;;;30.20;10.58;100489.47;5060959;27;96985;-70
2021/10/22 00:17:02;;;;;;;1999.90;999.90;;;;;;;30.16;10.22;100496.09;5063727;27;99296;-69
2021/10/22 00:19:33;;;;;;;1999.90;999.90;;;;;;;30.33;10.01;100495.94;5067409;27;97368;-72
2021/10/22 00:22:00;;;;;;;1999.90;999.90;;;;;;;30.24;10.39;100496.53;5065268;27;98219;-70
2021/10/22 00:24:28;;;;;;;1999.90;999.90;;;;;;;30.07;10.76;100504.94;5048230;27;97658;-69
2021/10/22 00:26:57;;;;;;;1999.90;999.90;;;;;;;30.14;10.35;100487.97;5059851;27;97646;-69
2021/10/22 00:29:25;;;;;;;1999.90;999.90;;;;;;;30.20;10.43;100490.38;5063614;27;99458;-70
2021/10/22 00:31:53;;;;;;;1999.90;999.90;;;;;;;30.27;10.44;100486.25;5066134;27;97678;-70
2021/10/22 00:34:21;;;;;;;1999.90;999.90;;;;;;;30.40;10.04;100497.28;5065476;27;96818;-70
2021/10/22 00:36:49;;;;;;;1999.90;999.90;;;;;;;30.48;9.95;100489.44;5064182;27;97032;-70
2021/10/22 00:39:17;;;;;;;1999.90;999.90;;;;;;;30.56;10.32;100486.19;5061428;27;99612;-70
2021/10/22 00:41:46;;;;;;;1999.90;999.90;;;;;;;30.61;10.41;100495.88;5066096;27;97734;-70
2021/10/22 00:44:15;;;;;;;1999.90;999.90;;;;;;;30.68;10.01;100496.38;5065601;27;96878;-70
2021/10/22 00:46:43;;;;;;;1999.90;999.90;;;;;;;30.44;10.37;100499.75;5063925;27;100956;-70
2021/10/22 00:49:12;;;;;;;1999.90;999.90;;;;;;;30.56;9.91;100494.44;5065574;27;97449;-69
2021/10/22 00:51:40;;;;;;;1999.90;999.90;;;;;;;30.31;10.52;100493.28;5062526;27;96762;-70
2021/10/22 00:54:10;;;;;;;1999.90;999.90;;;;;;;30.39;10.28;100504.69;5066563;27;97058;-70
2021/10/22 00:56:38;;;;;;;1999.90;999.90;;;;;;;30.37;10.29;100500.25;5066188;27;99490;-70
2021/10/22 00:59:07;;;;;;;1999.90;999.90;;;;;;;30.43;10.07;100495.22;5041607;27;100519;-70
2021/10/22 01:01:40;;;;;;;1999.90;999.90;;;;;;;30.58;10.08;100487.84;5060993;27;98643;-69
2021/10/22 01:04:09;;;;;;;1999.90;999.90;;;;;;;30.39;10.30;100493.69;5066951;27;98520;-70
2021/10/22 01:06:37;;;;;;;1999.90;999.90;;;;;;;30.27;10.04;100485.34;5052010;27;99315;-70
2021/10/22 01:09:08;;;;;;;1999.90;999.90;;;;;;;30.28;10.56;100498.09;5062238;27;98664;-70
2021/10/22 01:11:36;;;;;;;1999.90;999.90;;;;;;;30.18;10.48;100496.91;5061565;27;96700;-70
2021/10/22 01:14:04;;;;;;;1999.90;999.90;;;;;;;30.12;10.61;100491.81;5065137;27;96842;-71
2021/10/22 01:16:32;;;;;;;1999.90;999.90;;;;;;;30.17;10.38;100490.53;5062737;27;97858;-70
2021/10/22 01:19:02;;;;;;;1999.90;999.90;;;;;;;30.22;10.29;100491.16;5059222;27;97569;-70
2021/10/22 01:21:31;;;;;;;1999.90;999.90;;;;;;;30.23;10.22;100484.66;5043540;27;97741;-70
2021/10/22 01:23:59;;;;;;;1999.90;999.90;;;;;;;30.38;10.36;100496.50;5068621;27;96787;-70
2021/10/22 01:26:27;;;;;;;1999.90;999.90;;;;;;;30.21;10.49;100492.13;5064810;27;99491;-71
2021/10/22 01:28:55;;;;;;;1999.90;999.90;;;;;;;29.90;10.24;100502.41;5060743;27;97645;-70
2021/10/22 01:31:22;;;;;;;1999.90;999.90;;;;;;;30.10;10.64;100505.63;5049228;27;96959;-70
2021/10/22 01:33:50;;;;;;;1999.90;999.90;;;;;;;29.96;10.39;100505.63;5062973;27;96744;-70
2021/10/22 01:36:18;;;;;;;1999.90;999.90;;;;;;;29.93;10.76;100493.97;5067068;27;101130;-70
2021/10/22 01:38:47;;;;;;;1999.90;999.90;;;;;;;29.84;10.79;100489.06;5066347;27;100980;-70
2021/10/22 01:41:15;;;;;;;1999.90;999.90;;;;;;;29.81;10.21;100497.50;5062722;27;96673;-70
2021/10/22 01:43:44;;;;;;;1999.90;999.90;;;;;;;29.80;10.51;100501.22;5061443;27;97937;-70
2021/10/22 01:46:12;;;;;;;1999.90;999.90;;;;;;;29.80;10.67;100502.09;5067620;27;100539;-70
2021/10/22 01:48:40;;;;;;;1999.90;999.90;;;;;;;29.70;10.30;100500.03;5063399;27;98664;-70
2021/10/22 01:51:08;;;;;;;1999.90;999.90;;;;;;;29.59;10.42;100504.31;5062101;27;96930;-72
2021/10/22 01:53:36;;;;;;;1999.90;999.90;;;;;;;29.57;10.79;100495.28;5062725;27;96754;-71
2021/10/22 01:56:05;;;;;;;1999.90;999.90;;;;;;;29.74;10.58;100507.13;5062599;27;97688;-69
2021/10/22 01:58:33;;;;;;;1999.90;999.90;;;;;;;29.79;10.73;100502.22;5061621;27;97912;-70
2021/10/22 02:01:03;;;;;;;1999.90;999.90;;;;;;;29.73;10.92;100499.81;5067369;27;97329;-71
2021/10/22 02:03:31;;;;;;;1999.90;999.90;;;;;;;29.85;10.83;100499.09;5054449;27;98072;-70
2021/10/22 02:06:00;;;;;;;1999.90;999.90;;;;;;;29.89;10.91;100492.41;5062885;27;96917;-70
2021/10/22 02:08:28;;;;;;;1999.90;999.90;;;;;;;29.91;10.39;100499.56;5060371;27;97079;-70
2021/10/22 02:10:57;;;;;;;1999.90;999.90;;;;;;;29.83;10.53;100506.53;5061368;27;96887;-70
2021/10/22 02:13:26;;;;;;;1999.90;999.90;;;;;;;29.66;10.91;100490.22;5061822;27;97952;-70
2021/10/22 02:15:54;;;;;;;1999.90;999.90;;;;;;;29.80;10.64;100490.25;5059805;27;99174;-72
2021/10/22 02:18:22;;;;;;;1999.90;999.90;;;;;;;29.78;10.66;100490.34;5055695;27;97767;-71
2021/10/22 02:20:50;;;;;;;1999.90;999.90;;;;;;;29.85;10.60;100494.47;5056643;27;96845;-70
2021/10/22 02:23:18;;;;;;;1999.90;999.90;;;;;;;30.07;10.12;100504.94;5048988;27;96971;-70
2021/10/22 02:25:46;;;;;;;1999.90;999.90;;;;;;;30.06;10.50;100500.44;5058021;27;97931;-70
2021/10/22 02:28:15;;;;;;;1999.90;999.90;;;;;;;30.10;10.14;100499.28;5061567;27;101183;-70
2021/10/22 02:30:54;;;;;;;1999.90;999.90;;;;;;;30.24;10.68;100499.28;5059646;27;96828;-69
2021/10/22 02:33:24;;;;;;;1999.90;999.90;;;;;;;30.36;10.29;100490.22;5058160;27;97007;-69
2021/10/22 02:35:52;;;;;;;1999.90;999.90;;;;;;;30.27;10.08;100497.22;5039570;27;99470;-69
2021/10/22 02:38:20;;;;;;;1999.90;999.90;;;;;;;30.16;10.05;100505.25;5060515;27;99165;-70
2021/10/22 02:40:48;;;;;;;1999.90;999.90;;;;;;;29.00;11.26;100496.09;5073852;27;97163;-68
2021/10/22 02:43:16;;;;;;;1999.90;999.90;;;;;;;29.66;10.75;100503.94;5062877;27;98659;-69
2021/10/22 02:45:43;;;;;;;1999.90;999.90;;;;;;;29.85;10.57;100491.72;5062251;27;97796;-70
2021/10/22 02:48:12;;;;;;;1999.90;999.90;;;;;;;30.01;10.82;100494.38;5059111;27;97127;-70
2021/10/22 02:50:40;;;;;;;1999.90;999.90;;;;;;;29.88;10.37;100491.53;5060296;27;97915;-70
2021/10/22 02:53:08;;;;;;;1999.90;999.90;;;;;;;30.16;10.19;100504.34;5077669;27;96874;-70
2021/10/22 02:55:36;;;;;;;1999.90;999.90;;;;;;;30.23;10.21;100489.31;5064427;27;99385;-70
2021/10/22 02:58:03;;;;;;;1999.90;999.90;;;;;;;30.40;10.53;100487.19;5056709;27;97466;-69
2021/10/22 03:00:31;;;;;;;1999.90;999.90;;;;;;;30.45;10.18;100497.84;5062446;27;96793;-70
2021/10/22 03:03:00;;;;;;;1999.90;999.90;;;;;;;30.30;10.01;100501.63;5066386;27;96790;-70
2021/10/22 03:05:30;;;;;;;1999.90;999.90;;;;;;;30.29;10.44;100495.25;5059004;27;97814;-70
2021/10/22 03:07:59;;;;;;;1999.90;999.90;;;;;;;30.21;10.39;100500.34;5059714;27;97653;-70
2021/10/22 03:10:27;;;;;;;1999.90;999.90;;;;;;;30.09;10.53;100500.25;5041081;27;97027;-70
2021/10/22 03:12:55;;;;;;;1999.90;999.90;;;;;;;30.13;10.25;100507.31;5065717;27;98421;-69
2021/10/22 03:15:22;;;;;;;1999.90;999.90;;;;;;;29.92;10.69;100500.47;5056181;27;99333;-69
2021/10/22 03:17:51;;;;;;;1999.90;999.90;;;;;;;29.98;10.39;100492.69;5061476;27;98678;-69
2021/10/22 03:20:19;;;;;;;1999.90;999.90;;;;;;;29.92;10.17;100506.81;5056700;27;97850;-70
2021/10/22 03:22:47;;;;;;;1999.90;999.90;;;;;;;29.94;10.50;100493.00;5057867;27;97242;-70
2021/10/22 03:25:15;;;;;;;1999.90;999.90;;;;;;;30.48;10.23;100500.44;5060643;27;99942;-69
2021/10/22 03:27:47;;;;;;;1999.90;999.90;;;;;;;30.49;10.14;100496.69;5058386;27;99593;-70
2021/10/22 03:30:15;;;;;;;1999.90;999.90;;;;;;;30.59;10.19;100492.34;5054417;27;96781;-70
2021/10/22 03:32:43;;;;;;;1999.90;999.90;;;;;;;30.62;10.13;100491.25;5061415;27;96972;-69
2021/10/22 03:35:11;;;;;;;1999.90;999.90;;;;;;;30.70;10.06;100498.06;5059139;27;99526;-70
2021/10/22 03:37:39;;;;;;;1999.90;999.90;;;;;;;30.72;9.79;100500.69;5060772;27;100729;-70
2021/10/22 03:40:11;;;;;;;1999.90;999.90;;;;;;;30.61;9.88;100489.50;5059624;27;98511;-70
2021/10/22 03:42:38;;;;;;;1999.90;999.90;;;;;;;30.66;10.06;100491.00;5059511;27;97006;-69
2021/10/22 03:45:07;;;;;;;1999.90;999.90;;;;;;;30.54;9.92;100487.16;5040011;27;99285;-69
2021/10/22 03:47:35;;;;;;;1999.90;999.90;;;;;;;30.37;10.00;100509.38;5060531;27;97581;-70
2021/10/22 03:50:04;;;;;;;1999.90;999.90;;;;;;;30.33;10.35;100502.31;5044501;27;96906;-71
2021/10/22 03:52:35;;;;;;;1999.90;999.90;;;;;;;30.36;10.34;100499.34;5065213;27;97749;-70
2021/10/22 03:55:02;;;;;;;1999.90;999.90;;;;;;;30.38;10.26;100499.25;5067254;27;96912;-71
2021/10/22 03:57:31;;;;;;;1999.90;999.90;;;;;;;30.06;10.35;100506.84;5045593;27;99230;-72
2021/10/22 04:00:00;;;;;;;1999.90;999.90;;;;;;;30.08;10.36;100495.75;5067788;27;97018;-70
2021/10/22 04:02:38;;;;;;;1999.90;999.90;;;;;;;30.15;10.10;100491.63;5056892;27;97327;-70
2021/10/22 04:05:07;;;;;;;1999.90;999.90;;;;;;;30.22;10.29;100499.41;5063355;27;100753;-72
2021/10/22 04:07:36;;;;;;;1999.90;999.90;;;;;;;30.21;10.35;100485.78;5062713;27;99197;-70
2021/10/22 04:10:05;;;;;;;1999.90;999.90;;;;;;;30.37;10.38;100479.19;5072061;27;97059;-69
2021/10/22 04:12:35;;;;;;;1999.90;999.90;;;;;;;30.37;10.11;100487.41;5059069;27;97726;-70
2021/10/22 04:15:03;;;;;;;1999.90;999.90;;;;;;;30.25;10.48;100474.47;5066188;27;97649;-70
2021/10/22 04:17:38;;;;;;;1999.90;999.90;;;;;;;30.17;10.39;100495.16;5065840;27;99276;-71
2021/10/22 04:20:07;;;;;;;1999.90;999.90;;;;;;;30.18;10.10;100485.91;5067245;27;96930;-69
2021/10/22 04:22:35;;;;;;;1999.90;999.90;;;;;;;30.20;10.15;100482.13;5064652;27;96937;-70
2021/10/22 04:25:04;;;;;;;1999.90;999.90;;;;;;;30.12;10.40;100486.34;5062650;27;97373;-69
2021/10/22 04:27:35;;;;;;;1999.90;999.90;;;;;;;30.10;10.03;100493.78;5064767;27;97711;-70
2021/10/22 04:30:07;;;;;;;1999.90;999.90;;;;;;;30.05;10.10;100485.84;5069833;27;97011;-69
2021/10/22 04:32:34;;;;;;;1999.90;999.90;;;;;;;30.27;10.09;100475.25;5066515;27;96844;-70
2021/10/22 04:35:02;;;;;;;1999.90;999.90;;;;;;;30.41;10.30;100482.59;5048424;27;99500;-70
2021/10/22 04:37:33;;;;;;;1999.90;999.90;;;;;;;30.44;10.28;100474.16;5065034;27;99393;-69
2021/10/22 04:42:49;;;;;;;1999.90;999.90;;;;;;;30.46;10.19;100481.31;5065217;27;97594;-69
2021/10/22 04:45:19;;;;;;;1999.90;999.90;;;;;;;30.38;9.91;100485.53;5065314;27;98681;-68
2021/10/22 04:47:49;;;;;;;1999.90;999.90;;;;;;;30.41;10.02;100479.84;5038996;27;100925;-69
2021/10/22 04:50:18;;;;;;;1999.90;999.90;;;;;;;30.40;10.35;100494.53;5056886;27;97830;-68
2021/10/22 04:52:53;;;;;;;1999.90;999.90;;;;;;;30.32;10.36;100489.56;5039374;27;96850;-70
2021/10/22 04:55:21;;;;;;;1999.90;999.90;;;;;;;30.30;10.08;100485.16;5058483;27;98445;-70
2021/10/22 04:57:50;;;;;;;1999.90;999.90;;;;;;;30.47;10.23;100502.28;5033557;27;100311;-70
2021/10/22 05:00:19;;;;;;;1999.90;999.90;;;;;;;30.46;10.28;100494.16;5057095;27;97975;-69
2021/10/22 05:02:48;;;;;;;1999.90;999.90;;;;;;;30.47;9.93;100495.91;5057822;27;98649;-70
2021/10/22 05:05:16;;;;;;;1999.90;999.90;;;;;;;30.47;10.25;100501.38;5058134;27;97753;-69
2021/10/22 05:07:44;;;;;;;1999.90;999.90;;;;;;;30.48;9.94;100500.44;5063839;27;99161;-69
2021/10/22 05:10:12;;;;;;;1999.90;999.90;;;;;;;30.47;10.08;100498.66;5061931;27;97293;-70
2021/10/22 05:12:39;;;;;;;1999.90;999.90;;;;;;;30.58;10.14;100497.97;5057787;27;97412;-69
2021/10/22 05:15:09;;;;;;;1999.90;999.90;;;;;;;30.64;10.07;100492.97;5059808;27;97741;-70
2021/10/22 05:17:38;;;;;;;1999.90;999.90;;;;;;;30.53;10.24;100499.13;5041673;27;98831;-70
2021/10/22 05:20:09;;;;;;;1999.90;999.90;;;;;;;30.54;9.92;100505.53;5063213;27;97321;-70
2021/10/22 05:22:38;;;;;;;1999.90;999.90;;;;;;;30.65;9.88;100493.84;5063388;27;97288;-70
2021/10/22 05:25:07;;;;;;;1999.90;999.90;;;;;;;30.51;9.94;100500.22;5083186;27;97677;-69
2021/10/22 05:27:35;;;;;;;1999.90;999.90;;;;;;;30.45;9.88;100484.13;5068261;27;97461;-69
2021/10/22 05:30:03;;;;;;;1999.90;999.90;;;;;;;30.53;10.32;100499.13;5056606;27;96756;-70
2021/10/22 05:32:31;;;;;;;1999.90;999.90;;;;;;;30.55;10.09;100490.78;5060120;27;96832;-69
2021/10/22 05:35:00;;;;;;;1999.90;999.90;;;;;;;30.60;10.14;100488.63;5048414;27;99281;-70
2021/10/22 05:37:28;;;;;;;1999.90;999.90;;;;;;;29.28;10.59;100481.59;5058852;27;98149;-70
2021/10/22 05:39:57;;;;;;;1999.90;999.90;;;;;;;30.06;10.49;100476.63;5051554;27;97001;-69
2021/10/22 05:42:25;;;;;;;1999.90;999.90;;;;;;;30.18;10.04;100466.69;5024163;27;1129528;-70
2021/10/22 05:44:53;;;;;;;1999.90;999.90;;;;;;;30.27;9.99;100466.13;5066280;27;98204;-69
2021/10/22 05:47:21;;;;;;;1999.90;999.90;;;;;;;30.36;10.32;100471.00;5064748;27;98773;-69
2021/10/22 05:49:48;;;;;;;1999.90;999.90;;;;;;;30.24;9.99;100469.09;5051545;27;98085;-69
2021/10/22 05:52:18;;;;;;;1999.90;999.90;;;;;;;30.35;10.25;100478.41;5069043;27;96914;-69
2021/10/22 05:54:46;;;;;;;1999.90;999.90;;;;;;;30.32;9.99;100472.22;5066542;27;97022;-70
2021/10/22 05:57:14;;;;;;;1999.90;999.90;;;;;;;30.23;10.15;100473.69;5051933;27;97692;-70
2021/10/22 05:59:41;;;;;;;1999.90;999.90;;;;;;;30.25;9.93;100476.34;5065384;27;96900;-70
2021/10/22 06:02:15;;;;;;;1999.90;999.90;;;;;;;30.31;9.92;100465.84;5066659;27;97138;-70
2021/10/22 06:04:44;;;;;;;1999.90;999.90;;;;;;;30.37;10.29;100467.31;5067541;27;97755;-70
2021/10/22 06:07:11;;;;;;;1999.90;999.90;;;;;;;30.33;10.26;100463.00;5067721;27;96861;-70
2021/10/22 06:09:40;;;;;;;1999.90;999.90;;;;;;;30.37;10.02;100464.56;5047019;27;97299;-70
2021/10/22 06:12:08;;;;;;;1999.90;999.90;;;;;;;30.32;10.32;100466.72;5059871;27;96747;-70
2021/10/22 06:14:36;;;;;;;1999.90;999.90;;;;;;;30.32;9.96;100455.75;5064319;27;97815;-70
2021/10/22 06:17:04;;;;;;;1999.90;999.90;;;;;;;30.26;9.93;100456.16;5047183;27;99366;-70
2021/10/22 06:19:35;;;;;;;1999.90;999.90;;;;;;;30.29;9.89;100456.81;5068069;27;96891;-69
2021/10/22 06:22:33;;;;;;;1999.90;999.90;;;;;;;30.42;10.28;100462.38;5059569;27;97231;-70
2021/10/22 06:25:03;;;;;;;1999.90;999.90;;;;;;;30.34;10.35;100459.28;5044316;27;96660;-70
2021/10/22 06:27:31;;;;;;;1999.90;999.90;;;;;;;30.29;10.20;100443.09;5066061;27;97683;-70
2021/10/22 06:29:59;;;;;;;1999.90;999.90;;;;;;;30.11;10.40;100441.53;5062164;27;97191;-71
2021/10/22 06:32:27;;;;;;;1999.90;999.90;;;;;;;30.27;10.08;100446.91;5069649;27;97686;-69
2021/10/22 06:34:54;;;;;;;1999.90;999.90;;;;;;;30.45;9.88;100449.31;5044559;27;100783;-70
2021/10/22 06:37:22;;;;;;;1999.90;999.90;;;;;;;30.53;10.13;100454.31;5047597;27;99271;-70
2021/10/22 06:39:50;;;;;;;1999.90;999.90;;;;;;;30.44;10.21;100463.16;5065683;27;96819;-70
2021/10/22 06:42:19;;;;;;;1999.90;999.90;;;;;;;30.33;10.26;100457.50;5065535;27;96809;-70
2021/10/22 06:44:46;;;;;;;1999.90;999.90;;;;;;;30.48;10.06;100457.38;5064167;27;100577;-70
2021/10/22 06:47:16;;;;;;;1999.90;999.90;;;;;;;30.40;10.04;100446.00;5067073;27;98410;-70
2021/10/22 06:49:44;;;;;;;1999.90;999.90;;;;;;;30.48;10.23;100440.91;5070109;27;96757;-70
2021/10/22 06:52:12;;;;;;;1999.90;999.90;;;;;;;30.59;9.97;100447.50;5071692;27;96611;-70
2021/10/22 06:54:40;;;;;;;1999.90;999.90;;;;;;;30.62;9.92;100447.28;5046170;27;98470;-70
2021/10/22 06:57:07;;;;;;;1999.90;999.90;;;;;;;30.68;9.90;100460.66;5067491;27;98508;-70
2021/10/22 06:59:36;;;;;;;1999.90;999.90;;;;;;;30.58;10.24;100449.38;5061678;27;96672;-70
2021/10/22 07:02:04;;;;;;;1999.90;999.90;;;;;;;30.72;10.15;100463.13;5049017;27;97577;-70
2021/10/22 07:04:32;;;;;;;1999.90;999.90;;;;;;;30.79;9.89;100447.97;5062336;27;97893;-70
2021/10/22 07:07:15;;;;;;;1999.90;999.90;;;;;;;30.96;9.72;100431.19;5066155;27;98975;-69
2021/10/22 07:09:43;;;;;;;1999.90;999.90;;;;;;;30.77;10.15;100449.03;5064607;27;97014;-70
2021/10/22 07:12:11;;;;;;;1999.90;999.90;;;;;;;30.94;9.76;100440.53;5066750;27;97437;-69
2021/10/22 07:14:48;;;;;;;1999.90;999.90;;;;;;;30.91;9.73;100436.13;5064587;27;97655;-69
2021/10/22 07:17:16;;;;;;;1999.90;999.90;;;;;;;30.96;9.94;100455.91;5061490;27;98937;-70
2021/10/22 07:19:44;;;;;;;1999.90;999.90;;;;;;;30.96;9.70;100444.06;5062216;27;96883;-70
2021/10/22 07:22:14;;;;;;;1999.90;999.90;;;;;;;30.92;9.74;100443.41;5068714;27;96859;-70
2021/10/22 07:24:42;;;;;;;1999.90;999.90;;;;;;;31.07;9.83;100442.34;5070060;27;99038;-69
2021/10/22 07:27:09;;;;;;;1999.90;999.90;;;;;;;31.16;9.81;100443.59;5063333;27;96617;-69
2021/10/22 07:29:37;;;;;;;1999.90;999.90;;;;;;;31.04;9.98;100444.38;5068780;27;96922;-71
2021/10/22 07:32:06;;;;;;;1999.90;999.90;;;;;;;31.32;9.65;100425.91;5067598;27;96843;-70
2021/10/22 07:34:34;;;;;;;1999.90;999.90;;;;;;;31.39;9.92;100434.59;5066944;27;99299;-70
2021/10/22 07:37:02;;;;;;;1999.90;999.90;;;;;;;31.41;9.60;100428.00;5066776;27;100265;-69
2021/10/22 07:39:30;;;;;;;1999.90;999.90;;;;;;;31.50;9.58;100443.00;5062102;27;96741;-70
2021/10/22 07:42:06;;;;;;;1999.90;999.90;;;;;;;31.42;9.67;100446.25;5066834;27;96941;-69
2021/10/22 07:44:52;;;;;;;1999.90;999.90;;;;;;;31.42;9.78;100449.00;5057419;27;99525;-70
2021/10/22 07:47:22;;;;;;;1999.90;999.90;;;;;;;31.57;9.52;100459.94;5064136;27;100367;-70
2021/10/22 07:49:51;;;;;;;1999.90;999.90;;;;;;;31.38;9.75;100466.69;5061643;27;96820;-70
2021/10/22 07:52:19;;;;;;;1999.90;999.90;;;;;;;31.45;9.67;100457.03;5066436;27;96927;-70
2021/10/22 07:54:47;;;;;;;1999.90;999.90;;;;;;;31.59;9.68;100447.84;5058729;27;97738;-70
2021/10/22 07:57:15;;;;;;;1999.90;999.90;;;;;;;31.64;9.62;100442.88;5062239;27;99121;-70
2021/10/22 07:59:43;;;;;;;1999.90;999.90;;;;;;;31.80;9.60;100471.03;5067074;27;97030;-71
2021/10/22 08:02:12;;;;;;;1999.90;999.90;;;;;;;31.83;9.38;100446.06;5051579;27;97076;-70
2021/10/22 08:04:44;;;;;;;1999.90;999.90;;;;;;;31.92;9.50;100444.53;5058166;27;98805;-70
2021/10/22 08:07:12;;;;;;;1999.90;999.90;;;;;;;31.83;9.73;100432.31;5068450;27;99395;-70
2021/10/22 08:09:40;;;;;;;1999.90;999.90;;;;;;;32.16;9.40;100448.25;5067875;27;98610;-68
2021/10/22 08:12:08;;;;;;;1999.90;999.90;;;;;;;31.69;9.48;100448.06;5065147;27;97133;-71
2021/10/22 08:14:36;;;;;;;1999.90;999.90;;;;;;;31.71;9.65;100440.56;5062505;27;100761;-70
2021/10/22 08:17:04;;;;;;;1999.90;999.90;;;;;;;31.68;9.48;100436.16;5068278;27;98808;-70
2021/10/22 08:19:31;;;;;;;1999.90;999.90;;;;;;;31.54;9.80;100433.53;5044405;27;96918;-70
2021/10/22 08:24:48;;;;;;;1999.90;999.90;;;;;;;31.45;9.73;100446.03;5066490;27;99992;-70
2021/10/22 08:27:16;;;;;;;1999.90;999.90;;;;;;;31.62;9.78;100419.22;5067350;27;97598;-70
2021/10/22 08:29:43;;;;;;;1999.90;999.90;;;;;;;31.57;9.79;100438.81;5056833;27;96894;-70
2021/10/22 08:32:11;;;;;;;1999.90;999.90;;;;;;;31.68;9.60;100421.50;5060999;27;96916;-71
2021/10/22 08:34:39;;;;;;;1999.90;999.90;;;;;;;31.69;9.71;100431.53;5065504;27;99547;-70
2021/10/22 08:37:08;;;;;;;1999.90;999.90;;;;;;;31.84;9.57;100424.91;5060640;27;100337;-70
2021/10/22 08:39:42;;;;;;;1999.90;999.90;;;;;;;31.56;9.76;100419.66;5067989;27;96853;-69
2021/10/22 08:42:11;;;;;;;1999.90;999.90;;;;;;;31.70;9.78;100425.03;5048291;27;96984;-70
2021/10/22 08:44:41;;;;;;;1999.90;999.90;;;;;;;31.77;9.70;100438.25;5066761;27;100604;-69
2021/10/22 08:47:09;;;;;;;1999.90;999.90;;;;;;;31.75;9.67;100426.47;5067771;27;97374;-70
2021/10/22 08:49:38;;;;;;;1999.90;999.90;;;;;;;31.72;9.37;100420.31;5064265;27;96634;-69
2021/10/22 08:52:06;;;;;;;1999.90;999.90;;;;;;;31.70;9.79;100408.53;5047725;27;96959;-71
2021/10/22 08:54:39;;;;;;;1999.90;999.90;;;;;;;31.48;9.60;100411.91;5068638;27;98295;-71
2021/10/22 08:57:14;;;;;;;1999.90;999.90;;;;;;;31.82;9.75;100426.91;5065728;27;100810;-70
2021/10/22 08:59:42;;;;;;;1999.90;999.90;;;;;;;31.79;9.59;100400.50;5061328;27;97066;-71
2021/10/22 09:02:11;;;;;;;1999.90;999.90;;;;;;;31.85;9.88;100404.66;5070480;27;97830;-70
2021/10/22 09:04:39;;;;;;;1999.90;999.90;;;;;;;31.96;9.86;100408.44;5066404;27;99095;-70
2021/10/22 09:07:07;;;;;;;1999.90;999.90;;;;;;;31.76;9.83;100417.22;5053203;27;99832;-70
2021/10/22 09:09:36;;;;;;;1999.90;999.90;;;;;;;31.59;9.87;100409.31;5054910;27;96910;-70
2021/10/22 09:12:05;;;;;;;1999.90;999.90;;;;;;;31.62;9.98;100416.47;5067691;27;96842;-71
2021/10/22 09:14:33;;;;;;;1999.90;999.90;;;;;;;31.68;9.92;100377.50;5068265;27;97706;-70
2021/10/22 09:17:00;;;;;;;1999.90;999.90;;;;;;;31.94;9.80;100382.00;5059764;27;97105;-68
2021/10/22 09:19:33;;;;;;;1999.90;999.90;;;;;;;32.22;9.68;100398.22;5065387;27;96711;-68
2021/10/22 09:22:24;;;;;;;1999.90;999.90;;;;;;;32.33;9.15;100429.44;5062241;27;96810;-70
2021/10/22 09:24:55;;;;;;;1999.90;999.90;;;;;;;31.94;9.54;100434.28;5061924;27;97083;-70
2021/10/22 09:27:38;;;;;;;1999.90;999.90;;;;;;;32.13;9.70;100377.75;5064633;27;97011;-70
2021/10/22 09:30:09;;;;;;;1999.90;999.90;;;;;;;32.17;9.59;100386.66;5064462;27;96926;-70
2021/10/22 09:32:45;;;;;;;1999.90;999.90;;;;;;;32.39;9.36;100379.44;5062385;27;98794;-70
2021/10/22 09:35:13;;;;;;;1999.90;999.90;;;;;;;32.12;9.82;100391.63;5059213;27;98572;-70
2021/10/22 09:37:42;;;;;;;1999.90;999.90;;;;;;;31.96;10.07;100380.91;5059678;27;98747;-70
2021/10/22 09:40:11;;;;;;;1999.90;999.90;;;;;;;31.65;9.94;100399.72;5061938;27;96934;-70
2021/10/22 09:42:48;;;;;;;1999.90;999.90;;;;;;;32.22;9.55;100403.72;5063293;27;96912;-70
2021/10/22 09:45:27;;;;;;;1999.90;999.90;;;;;;;32.52;9.49;100390.41;5065835;27;99976;-69
2021/10/22 09:47:55;;;;;;;1999.90;999.90;;;;;;;32.04;9.98;100405.06;5062374;27;98785;-70
2021/10/22 09:50:28;;;;;;;1999.90;999.90;;;;;;;32.28;9.51;100397.72;5057915;27;96700;-70
2021/10/22 09:52:57;;;;;;;1999.90;999.90;;;;;;;32.61;9.58;100411.75;5062569;27;98321;-70
2021/10/22 09:55:29;;;;;;;1999.90;999.90;;;;;;;32.54;9.31;100420.59;5059602;27;99344;-70
2021/10/22 09:58:06;;;;;;;1999.90;999.90;;;;;;;32.52;9.55;100422.56;5045471;27;99348;-70
2021/10/22 10:00:36;;;;;;;1999.90;999.90;;;;;;;32.35;9.75;100437.63;5060780;27;96405;-70
2021/10/22 10:03:06;;;;;;;1999.90;999.90;;;;;;;32.46;9.79;100423.06;5061026;27;97231;-70
2021/10/22 10:05:34;;;;;;;1999.90;999.90;;;;;;;32.60;9.46;100398.09;5047354;27;99290;-69
2021/10/22 10:08:01;;;;;;;1999.90;999.90;;;;;;;32.67;9.52;100394.75;5060175;27;97670;-70
2021/10/22 10:10:31;;;;;;;1999.90;999.90;;;;;;;32.61;9.51;100419.13;5049373;27;96830;-70
2021/10/22 10:13:00;;;;;;;1999.90;999.90;;;;;;;32.48;9.68;100365.97;5066046;27;96846;-71
2021/10/22 10:15:28;;;;;;;1999.90;999.90;;;;;;;32.51;9.67;100394.16;5043025;27;99778;-70
2021/10/22 10:17:56;;;;;;;1999.90;999.90;;;;;;;32.60;9.50;100400.84;5062408;27;99396;-71
2021/10/22 10:20:27;;;;;;;1999.90;999.90;;;;;;;32.32;9.69;100388.25;5055688;27;96787;-73
2021/10/22 10:22:56;;;;;;;1999.90;999.90;;;;;;;32.28;9.70;100395.88;5063336;27;96726;-70
2021/10/22 10:25:24;;;;;;;1999.90;999.90;;;;;;;31.94;9.90;100390.25;5059762;27;97611;-71
2021/10/22 10:27:56;;;;;;;1999.90;999.90;;;;;;;31.92;9.60;100389.47;5047741;27;97612;-71
2021/10/22 10:30:29;;;;;;;1999.90;999.90;;;;;;;32.12;9.81;100410.91;5066041;27;96673;-70
2021/10/22 10:32:57;;;;;;;1999.90;999.90;;;;;;;32.36;9.75;100389.81;5058246;27;97457;-70
2021/10/22 10:35:25;;;;;;;1999.90;999.90;;;;;;;32.45;9.72;100393.75;5047858;27;99658;-70
2021/10/22 10:37:54;;;;;;;1999.90;999.90;;;;;;;32.11;9.92;100415.53;5065296;27;97255;-71
2021/10/22 10:40:23;;;;;;;1999.90;999.90;;;;;;;32.24;9.76;100383.31;5062894;27;96830;-71
2021/10/22 10:42:54;;;;;;;1999.90;999.90;;;;;;;32.35;9.44;100401.81;5080633;27;96800;-68
2021/10/22 10:45:41;;;;;;;1999.90;999.90;;;;;;;32.49;9.31;100368.59;5062487;27;100666;-68
2021/10/22 10:48:13;;;;;;;1999.90;999.90;;;;;;;32.65;9.30;100379.31;5063230;27;97730;-69
2021/10/22 10:50:46;;;;;;;1999.90;999.90;;;;;;;32.86;9.44;100375.78;5042590;27;96846;-71
2021/10/22 10:53:17;;;;;;;1999.90;999.90;;;;;;;32.93;9.40;100382.56;5057942;27;97406;-68
2021/10/22 10:55:46;;;;;;;1999.90;999.90;;;;;;;32.88;9.28;100365.53;5057803;27;100974;-68
2021/10/22 10:58:18;;;;;;;1999.90;999.90;;;;;;;33.14;9.58;100366.22;5065880;27;98523;-70
2021/10/22 11:00:57;;;;;;;1999.90;999.90;;;;;;;32.91;9.77;100357.03;5071580;27;96751;-70
2021/10/22 11:03:28;;;;;;;1999.90;999.90;;;;;;;32.96;9.03;100401.66;5066179;27;96749;-69
2021/10/22 11:06:05;;;;;;;1999.90;999.90;;;;;;;32.34;9.24;100364.25;5048599;27;99277;-70